Time;durP1;ratioP1;P1;durP2;ratioP2;P2;SDS_P1;SDS_P2;PMS_P1;PMS_P2;Temp;Humidity;BMP_temperature;BMP_pressure;BME280_temperature;BME280_humidity;BME280_pressure;Samples;Min_cycle;Max_cycle;Signal;HPM_P1;HPM_P2
2022/08/15 00:01:04;;;;;;;0.20;0.20;;;23.40;95.70;;;;;;5119339;27;20047;-82
2022/08/15 00:03:33;;;;;;;0.20;0.20;;;23.40;95.80;;;;;;5116707;28;20428;-82
2022/08/15 00:06:03;;;;;;;0.20;0.20;;;23.30;95.80;;;;;;5119198;27;20042;-81
2022/08/15 00:08:31;;;;;;;0.20;0.20;;;23.30;96.00;;;;;;5113313;27;20109;-81
2022/08/15 00:11:03;;;;;;;0.20;0.20;;;23.30;96.20;;;;;;5107186;27;20062;-81
2022/08/15 00:13:29;;;;;;;0.20;0.20;;;23.30;96.20;;;;;;5108277;27;20056;-82
2022/08/15 00:15:55;;;;;;;0.20;0.20;;;23.20;96.20;;;;;;5112665;28;20038;-82
2022/08/15 00:18:25;;;;;;;0.20;0.20;;;23.20;96.30;;;;;;5118255;28;20134;-83
2022/08/15 00:20:52;;;;;;;0.20;0.20;;;23.20;96.30;;;;;;5123131;27;20047;-81
2022/08/15 00:23:23;;;;;;;0.20;0.20;;;23.10;96.40;;;;;;5128278;27;20043;-83
2022/08/15 00:25:51;;;;;;;0.20;0.20;;;23.10;96.50;;;;;;5118508;27;20111;-82
2022/08/15 00:28:17;;;;;;;0.20;0.20;;;23.00;96.60;;;;;;5115128;27;20483;-82
2022/08/15 00:30:44;;;;;;;0.20;0.20;;;23.00;96.60;;;;;;5130889;27;20061;-82
2022/08/15 00:33:11;;;;;;;0.20;0.20;;;23.00;96.70;;;;;;5128109;27;20379;-81
2022/08/15 00:35:44;;;;;;;0.20;0.20;;;23.00;96.80;;;;;;5119402;27;20637;-82
2022/08/15 00:38:16;;;;;;;0.20;0.20;;;23.00;96.80;;;;;;5115475;27;20136;-82
2022/08/15 00:43:34;;;;;;;0.20;0.20;;;23.00;96.90;;;;;;5114289;27;20546;-82
2022/08/15 00:46:02;;;;;;;0.20;0.20;;;23.00;96.90;;;;;;5109949;27;20398;-82
2022/08/15 00:48:42;;;;;;;0.20;0.20;;;23.00;96.90;;;;;;5117301;27;20043;-82
2022/08/15 00:51:24;;;;;;;0.20;0.20;;;23.00;96.90;;;;;;5129838;27;20031;-83
2022/08/15 00:53:55;;;;;;;0.20;0.20;;;23.00;96.90;;;;;;5116336;27;20039;-82
2022/08/15 00:56:24;;;;;;;0.20;0.20;;;23.00;96.90;;;;;;5120060;27;20464;-82
2022/08/15 00:58:50;;;;;;;0.20;0.20;;;22.90;97.00;;;;;;5137575;27;20061;-82
2022/08/15 01:01:17;;;;;;;0.20;0.20;;;22.90;97.10;;;;;;5131187;27;20045;-83
2022/08/15 01:03:45;;;;;;;0.20;0.20;;;23.00;97.10;;;;;;5124617;27;20058;-83
2022/08/15 01:06:12;;;;;;;0.20;0.20;;;22.90;97.00;;;;;;5143138;27;20099;-82
2022/08/15 01:08:41;;;;;;;0.20;0.20;;;23.00;97.00;;;;;;5113602;27;20051;-82
2022/08/15 01:11:25;;;;;;;0.20;0.20;;;22.90;97.10;;;;;;5142445;27;20046;-82
2022/08/15 01:13:53;;;;;;;0.20;0.20;;;22.90;96.90;;;;;;5117561;27;20054;-82
2022/08/15 01:16:21;;;;;;;0.20;0.20;;;22.90;97.00;;;;;;5134276;27;20058;-82
2022/08/15 01:18:47;;;;;;;0.20;0.20;;;22.90;97.10;;;;;;5133703;27;21712;-83
2022/08/15 01:21:24;;;;;;;0.20;0.20;;;22.90;97.00;;;;;;5145729;27;20114;-82
2022/08/15 01:24:02;;;;;;;0.20;0.20;;;22.90;97.00;;;;;;5138608;27;20050;-83
2022/08/15 01:26:28;;;;;;;0.20;0.20;;;22.90;96.90;;;;;;5113790;27;20508;-83
2022/08/15 01:28:55;;;;;;;0.20;0.20;;;22.80;96.90;;;;;;5139844;27;20130;-82
2022/08/15 01:31:22;;;;;;;0.20;0.20;;;22.80;96.80;;;;;;5131893;27;20034;-82
2022/08/15 01:33:52;;;;;;;0.20;0.20;;;22.80;97.10;;;;;;5125796;27;20043;-82
2022/08/15 01:36:20;;;;;;;0.20;0.20;;;22.90;96.80;;;;;;5137308;27;20401;-82
2022/08/15 01:39:10;;;;;;;0.20;0.20;;;22.80;96.80;;;;;;5130986;27;20137;-82
2022/08/15 01:41:38;;;;;;;0.20;0.20;;;22.80;96.80;;;;;;5117440;27;20051;-82
2022/08/15 01:44:19;;;;;;;0.20;0.20;;;22.80;96.80;;;;;;5124451;27;20055;-81
2022/08/15 01:47:04;;;;;;;0.15;0.15;;;22.80;96.80;;;;;;5118755;27;20083;-82
2022/08/15 01:49:38;;;;;;;0.10;0.10;;;22.80;96.90;;;;;;5151418;27;20038;-82
2022/08/15 01:52:05;;;;;;;0.20;0.20;;;22.80;96.90;;;;;;5144726;27;20043;-82
2022/08/15 01:54:36;;;;;;;0.20;0.20;;;22.80;96.80;;;;;;5147715;27;20043;-83
2022/08/15 01:57:03;;;;;;;;;;;22.80;96.80;;;;;;5127768;27;20059;-82
2022/08/15 01:59:28;;;;;;;0.20;0.20;;;22.80;96.70;;;;;;5142154;27;19923;-82
2022/08/15 02:01:56;;;;;;;0.20;0.20;;;22.80;96.70;;;;;;5132496;27;20043;-82
2022/08/15 02:04:29;;;;;;;0.20;0.20;;;22.80;96.70;;;;;;5145813;27;20039;-81
2022/08/15 02:06:57;;;;;;;0.20;0.20;;;22.90;96.70;;;;;;5147674;27;20121;-81
2022/08/15 02:09:23;;;;;;;0.20;0.20;;;22.90;96.70;;;;;;5120119;27;20069;-82
2022/08/15 02:11:50;;;;;;;0.20;0.20;;;22.80;96.70;;;;;;5125193;27;20038;-81
2022/08/15 02:14:17;;;;;;;0.20;0.20;;;22.80;96.70;;;;;;5130549;27;20053;-82
2022/08/15 02:16:43;;;;;;;0.20;0.20;;;22.80;96.60;;;;;;5132240;27;20270;-83
2022/08/15 02:19:14;;;;;;;0.20;0.20;;;22.80;96.60;;;;;;5128728;27;20137;-81
2022/08/15 02:21:42;;;;;;;0.20;0.20;;;22.80;96.70;;;;;;5131895;27;20573;-80
2022/08/15 02:24:12;;;;;;;0.20;0.20;;;22.80;96.70;;;;;;5139687;27;20401;-81
2022/08/15 02:26:38;;;;;;;0.20;0.20;;;22.80;96.70;;;;;;5147247;27;22207;-83
2022/08/15 02:29:04;;;;;;;0.20;0.20;;;22.80;96.70;;;;;;5125238;27;20158;-82
2022/08/15 02:31:31;;;;;;;0.20;0.20;;;22.80;96.80;;;;;;5147655;27;20180;-82
2022/08/15 02:33:59;;;;;;;0.20;0.20;;;22.80;96.80;;;;;;5130392;27;20043;-82
2022/08/15 02:36:26;;;;;;;0.20;0.20;;;22.80;96.80;;;;;;5150797;27;20050;-82
2022/08/15 02:38:53;;;;;;;0.10;0.10;;;22.80;96.80;;;;;;5145510;27;20058;-82
2022/08/15 02:41:30;;;;;;;0.20;0.20;;;22.80;96.90;;;;;;5130462;27;20479;-82
2022/08/15 02:43:57;;;;;;;0.10;0.10;;;22.80;97.10;;;;;;5122880;27;20576;-82
2022/08/15 02:46:23;;;;;;;0.20;0.20;;;22.80;97.00;;;;;;5124040;27;20046;-82
2022/08/15 02:48:49;;;;;;;0.20;0.20;;;22.80;97.20;;;;;;5136515;27;20030;-82
2022/08/15 02:51:18;;;;;;;0.10;0.10;;;22.80;97.00;;;;;;5131983;27;20532;-82
2022/08/15 02:53:47;;;;;;;0.20;0.20;;;22.80;97.00;;;;;;5148884;27;20034;-82
2022/08/15 02:56:17;;;;;;;0.20;0.20;;;22.80;97.10;;;;;;5144150;27;20062;-82
2022/08/15 02:58:44;;;;;;;0.20;0.20;;;22.80;97.10;;;;;;5151920;27;20086;-81
2022/08/15 03:01:11;;;;;;;0.20;0.20;;;22.80;97.20;;;;;;5123615;27;20307;-81
2022/08/15 03:03:38;;;;;;;0.20;0.20;;;22.80;97.20;;;;;;5134191;27;20046;-81
2022/08/15 03:06:08;;;;;;;0.20;0.20;;;22.80;97.30;;;;;;5116604;27;20386;-81
2022/08/15 03:08:38;;;;;;;0.20;0.20;;;22.70;97.50;;;;;;5130139;27;20035;-81
2022/08/15 03:11:05;;;;;;;0.17;0.17;;;22.60;97.70;;;;;;5134530;27;20050;-82
2022/08/15 03:13:35;;;;;;;0.20;0.20;;;22.50;97.80;;;;;;5113722;27;20059;-81
2022/08/15 03:16:03;;;;;;;0.20;0.20;;;22.50;97.90;;;;;;5112901;27;20036;-81
2022/08/15 03:18:32;;;;;;;0.20;0.20;;;22.50;98.10;;;;;;5118822;27;20046;-81
2022/08/15 03:20:59;;;;;;;0.20;0.20;;;22.50;98.20;;;;;;5131363;27;20665;-81
2022/08/15 03:23:27;;;;;;;0.20;0.20;;;22.40;98.30;;;;;;5112273;27;20117;-81
2022/08/15 03:25:54;;;;;;;0.20;0.20;;;22.40;98.40;;;;;;5125293;27;20039;-81
2022/08/15 03:28:24;;;;;;;0.20;0.20;;;22.30;98.60;;;;;;5121889;27;20049;-81
2022/08/15 03:30:50;;;;;;;0.20;0.20;;;22.30;98.70;;;;;;5120250;27;20054;-81
2022/08/15 03:33:17;;;;;;;0.20;0.20;;;22.30;98.90;;;;;;5148275;27;20042;-81
2022/08/15 03:35:46;;;;;;;0.20;0.20;;;22.30;99.00;;;;;;5126353;27;20053;-82
2022/08/15 03:38:13;;;;;;;0.20;0.20;;;22.20;99.10;;;;;;5115346;28;20494;-82
2022/08/15 03:40:41;;;;;;;0.13;0.13;;;22.30;99.20;;;;;;5134901;27;20042;-80
2022/08/15 03:43:11;;;;;;;0.20;0.20;;;22.30;99.70;;;;;;5119662;27;20054;-81
2022/08/15 03:45:37;;;;;;;0.20;0.20;;;22.30;99.50;;;;;;5115306;27;20043;-81
2022/08/15 03:48:03;;;;;;;0.20;0.20;;;22.20;99.60;;;;;;5137422;27;20095;-81
2022/08/15 03:50:32;;;;;;;0.20;0.20;;;22.20;99.60;;;;;;5118505;27;20876;-81
2022/08/15 03:53:07;;;;;;;0.20;0.20;;;22.20;99.70;;;;;;5123929;27;20051;-82
2022/08/15 03:55:35;;;;;;;0.20;0.20;;;22.20;99.70;;;;;;5113050;27;20389;-80
2022/08/15 03:58:01;;;;;;;0.20;0.20;;;22.20;99.80;;;;;;5149053;27;20038;-81
2022/08/15 04:00:33;;;;;;;0.55;0.22;;;22.20;99.90;;;;;;5145760;27;20415;-82
2022/08/15 04:03:20;;;;;;;0.20;0.20;;;22.20;99.90;;;;;;5151573;27;20057;-81
2022/08/15 04:05:52;;;;;;;0.13;0.13;;;22.20;99.90;;;;;;5135912;27;20035;-81
2022/08/15 04:08:23;;;;;;;0.20;0.20;;;22.10;99.90;;;;;;5130879;27;20390;-81
2022/08/15 04:10:51;;;;;;;0.20;0.20;;;22.10;99.90;;;;;;5139281;27;20054;-82
2022/08/15 04:13:24;;;;;;;0.20;0.20;;;22.10;99.90;;;;;;5118588;27;20382;-81
2022/08/15 04:15:58;;;;;;;0.20;0.20;;;22.10;99.90;;;;;;5140357;27;20039;-82
2022/08/15 04:18:28;;;;;;;0.20;0.20;;;22.10;99.90;;;;;;5120761;27;20047;-80
2022/08/15 04:20:58;;;;;;;0.20;0.20;;;22.00;99.90;;;;;;5130343;27;20053;-81
2022/08/15 04:23:23;;;;;;;0.20;0.20;;;22.00;99.90;;;;;;5134558;27;20043;-81
2022/08/15 04:25:53;;;;;;;0.20;0.20;;;21.90;99.90;;;;;;5147403;27;20042;-81
2022/08/15 04:28:20;;;;;;;0.20;0.20;;;21.90;99.90;;;;;;5142960;27;20043;-82
2022/08/15 04:30:48;;;;;;;0.20;0.20;;;21.90;99.90;;;;;;5130169;27;20673;-81
2022/08/15 04:33:27;;;;;;;0.20;0.20;;;21.90;99.90;;;;;;5133876;27;20060;-82
2022/08/15 04:35:59;;;;;;;0.20;0.20;;;21.90;99.90;;;;;;5132373;27;20118;-83
2022/08/15 04:38:25;;;;;;;0.20;0.20;;;21.80;99.90;;;;;;5146226;27;20122;-82
2022/08/15 04:40:54;;;;;;;0.20;0.20;;;21.80;99.90;;;;;;5139685;27;20041;-82
2022/08/15 04:43:22;;;;;;;0.20;0.20;;;21.80;99.90;;;;;;5152528;27;20129;-81
2022/08/15 04:45:48;;;;;;;0.20;0.20;;;21.80;99.90;;;;;;5124593;27;20047;-82
2022/08/15 04:48:14;;;;;;;0.20;0.20;;;21.80;99.90;;;;;;5146537;27;20047;-80
2022/08/15 04:50:43;;;;;;;0.17;0.17;;;21.80;99.90;;;;;;5149203;27;20030;-82
2022/08/15 04:53:09;;;;;;;0.20;0.20;;;21.80;99.90;;;;;;5127514;27;20038;-82
2022/08/15 04:55:35;;;;;;;0.13;0.13;;;21.80;99.90;;;;;;5135865;27;20035;-82
2022/08/15 04:58:03;;;;;;;0.20;0.20;;;21.80;99.90;;;;;;5116550;27;20070;-82
2022/08/15 05:00:31;;;;;;;0.20;0.20;;;21.80;99.90;;;;;;5133782;27;20036;-83
2022/08/15 05:03:03;;;;;;;0.20;0.20;;;21.80;99.90;;;;;;5134467;27;20071;-84
2022/08/15 05:05:31;;;;;;;0.20;0.20;;;21.80;99.90;;;;;;5140460;27;20401;-83
2022/08/15 05:07:57;;;;;;;0.20;0.20;;;21.80;99.90;;;;;;5132997;27;20129;-83
2022/08/15 05:10:23;;;;;;;0.20;0.20;;;21.80;99.90;;;;;;5128308;27;20038;-82
2022/08/15 05:12:49;;;;;;;0.20;0.20;;;21.80;99.90;;;;;;5145587;27;20121;-81
2022/08/15 05:15:17;;;;;;;0.20;0.20;;;21.80;99.90;;;;;;5127053;27;20043;-82
2022/08/15 05:17:45;;;;;;;0.20;0.20;;;21.70;99.90;;;;;;5135323;27;20047;-82
2022/08/15 05:20:11;;;;;;;0.20;0.20;;;21.70;99.90;;;;;;5164965;27;20048;-84
2022/08/15 05:22:51;;;;;;;0.20;0.20;;;21.70;99.90;;;;;;5142834;27;20068;-84
2022/08/15 05:25:17;;;;;;;0.20;0.20;;;21.70;99.90;;;;;;5144418;27;20047;-82
2022/08/15 05:27:43;;;;;;;0.20;0.20;;;21.70;99.90;;;;;;5144916;27;20036;-84
2022/08/15 05:30:09;;;;;;;0.20;0.20;;;21.70;99.90;;;;;;5137717;27;20471;-80
2022/08/15 05:32:39;;;;;;;0.20;0.20;;;21.80;99.90;;;;;;5149247;27;20050;-84
2022/08/15 05:35:08;;;;;;;0.20;0.20;;;21.60;99.90;;;;;;5130508;27;20050;-84
2022/08/15 05:37:34;;;;;;;0.10;0.10;;;21.80;99.90;;;;;;5128285;27;20035;-83
2022/08/15 05:40:00;;;;;;;0.20;0.20;;;21.80;99.90;;;;;;5133814;27;20085;-81
2022/08/15 05:42:35;;;;;;;0.20;0.20;;;21.80;99.90;;;;;;5143640;27;20035;-83
2022/08/15 05:45:08;;;;;;;0.20;0.20;;;21.80;99.90;;;;;;5143794;27;20049;-84
2022/08/15 05:47:39;;;;;;;0.20;0.20;;;21.80;99.90;;;;;;5142050;27;20049;-84
2022/08/15 05:50:11;;;;;;;0.10;0.10;;;21.80;99.90;;;;;;5120893;27;20125;-82
2022/08/15 05:53:00;;;;;;;0.20;0.20;;;21.80;99.90;;;;;;5146909;27;20095;-82
2022/08/15 05:55:47;;;;;;;0.20;0.20;;;21.90;99.90;;;;;;5143681;27;20038;-82
2022/08/15 05:58:35;;;;;;;0.20;0.20;;;21.90;99.90;;;;;;5122403;27;20445;-84
2022/08/15 06:01:21;;;;;;;0.20;0.20;;;21.90;99.90;;;;;;5140384;27;20035;-83
2022/08/15 06:04:13;;;;;;;0.20;0.20;;;22.00;99.90;;;;;;5121455;27;20047;-83
2022/08/15 06:06:42;;;;;;;0.30;0.30;;;22.00;99.90;;;;;;5138982;27;20043;-83
2022/08/15 06:09:21;;;;;;;0.13;0.13;;;22.10;99.90;;;;;;5123037;27;20121;-83
2022/08/15 06:11:47;;;;;;;0.20;0.20;;;22.10;99.90;;;;;;5114262;27;20035;-84
2022/08/15 06:14:43;;;;;;;0.20;0.20;;;22.20;99.90;;;;;;5118435;27;20383;-85
2022/08/15 06:17:34;;;;;;;0.20;0.20;;;22.20;99.90;;;;;;5117052;27;20058;-85
2022/08/15 06:20:00;;;;;;;;;;;22.20;99.90;;;;;;5116948;27;20501;-82
2022/08/15 06:22:38;;;;;;;0.20;0.20;;;22.30;99.90;;;;;;5135983;27;20657;-81
2022/08/15 06:25:14;;;;;;;0.20;0.20;;;22.30;99.90;;;;;;5147527;27;20034;-81
2022/08/15 06:27:58;;;;;;;0.20;0.20;;;22.30;99.90;;;;;;5144828;27;20447;-82
2022/08/15 06:30:55;;;;;;;0.20;0.20;;;22.40;99.90;;;;;;5119447;27;20054;-81
2022/08/15 06:33:28;;;;;;;0.13;0.13;;;22.40;99.90;;;;;;5119541;27;20123;-84
2022/08/15 06:36:06;;;;;;;0.20;0.20;;;22.40;99.90;;;;;;5145459;27;20126;-82
2022/08/15 06:38:48;;;;;;;0.20;0.20;;;22.50;99.90;;;;;;5145098;27;20558;-81
2022/08/15 06:41:41;;;;;;;0.20;0.20;;;22.50;99.90;;;;;;5120648;27;20394;-82
2022/08/15 06:44:08;;;;;;;0.20;0.20;;;22.60;99.90;;;;;;5141280;27;20443;-81
2022/08/15 06:46:34;;;;;;;0.20;0.20;;;22.60;99.90;;;;;;5126017;27;20035;-80
2022/08/15 06:49:09;;;;;;;0.10;0.10;;;22.70;99.90;;;;;;5120990;27;20085;-80
2022/08/15 06:51:38;;;;;;;0.20;0.20;;;22.70;99.90;;;;;;5117528;27;20043;-81
2022/08/15 06:54:08;;;;;;;0.20;0.20;;;22.70;99.90;;;;;;5122145;27;20043;-80
2022/08/15 06:56:34;;;;;;;0.30;0.30;;;22.70;99.90;;;;;;5129447;27;20062;-80
2022/08/15 06:59:11;;;;;;;0.20;0.20;;;22.80;99.90;;;;;;5128021;27;20504;-80
2022/08/15 07:01:46;;;;;;;0.20;0.20;;;22.90;99.90;;;;;;5114481;27;20041;-80
2022/08/15 07:04:42;;;;;;;0.20;0.20;;;22.90;99.90;;;;;;5121803;27;20580;-83
2022/08/15 07:07:18;;;;;;;0.20;0.20;;;23.00;99.90;;;;;;5140855;27;20095;-78
2022/08/15 07:09:55;;;;;;;0.20;0.20;;;23.00;99.90;;;;;;5136683;27;20035;-81
2022/08/15 07:12:49;;;;;;;0.20;0.20;;;23.10;99.90;;;;;;5120944;27;20047;-81
2022/08/15 07:15:29;;;;;;;0.20;0.20;;;23.10;99.90;;;;;;5118157;27;20506;-80
2022/08/15 07:18:00;;;;;;;0.20;0.20;;;23.10;99.90;;;;;;5141570;27;20118;-87
2022/08/15 07:20:26;;;;;;;0.20;0.20;;;23.10;99.90;;;;;;5135180;27;20064;-87
2022/08/15 07:22:52;;;;;;;0.20;0.20;;;23.20;99.90;;;;;;5133036;27;20057;-93
2022/08/15 07:25:24;;;;;;;0.20;0.20;;;23.20;99.80;;;;;;5167428;27;20023;-93
2022/08/15 07:28:02;;;;;;;0.20;0.20;;;23.30;99.80;;;;;;5142786;27;20137;-93
2022/08/15 07:30:57;;;;;;;0.20;0.20;;;23.20;99.80;;;;;;5139412;27;20050;-92
2022/08/15 07:33:30;;;;;;;0.20;0.20;;;23.40;99.90;;;;;;5107390;27;20047;-91
2022/08/15 07:36:30;;;;;;;0.20;0.20;;;23.50;99.90;;;;;;5132022;27;20038;-89
2022/08/15 07:38:56;;;;;;;0.20;0.20;;;23.50;99.80;;;;;;5127658;27;20053;-93
2022/08/15 07:41:25;;;;;;;0.20;0.20;;;23.50;99.80;;;;;;5157836;27;20534;-93
2022/08/15 07:44:16;;;;;;;0.20;0.20;;;23.50;99.80;;;;;;5159295;27;20038;-92
2022/08/15 07:46:55;;;;;;;0.20;0.20;;;23.60;99.90;;;;;;5128172;27;20478;-92
2022/08/15 07:49:26;;;;;;;0.20;0.20;;;23.70;99.90;;;;;;5159020;27;20051;-92
2022/08/15 07:51:58;;;;;;;0.20;0.20;;;23.70;99.70;;;;;;5145152;27;20049;-92
2022/08/15 07:54:31;;;;;;;0.20;0.20;;;23.90;99.60;;;;;;5159525;27;20058;-92
2022/08/15 07:57:03;;;;;;;0.20;0.20;;;23.90;99.50;;;;;;5140288;27;20051;-93
2022/08/15 07:59:39;;;;;;;0.20;0.20;;;24.00;99.40;;;;;;5140878;27;20118;-94
2022/08/15 08:02:22;;;;;;;0.20;0.20;;;24.10;99.30;;;;;;5159635;27;20067;-93
2022/08/15 08:04:48;;;;;;;0.20;0.20;;;24.20;99.20;;;;;;5159202;27;20043;-95
2022/08/15 08:07:26;;;;;;;0.20;0.20;;;24.20;99.00;;;;;;5160005;27;20049;-95
2022/08/15 08:10:20;;;;;;;0.20;0.20;;;24.30;98.90;;;;;;5177994;27;20064;-93
2022/08/15 08:13:09;;;;;;;0.20;0.20;;;24.40;98.60;;;;;;5148221;27;20038;-92
2022/08/15 08:16:08;;;;;;;0.20;0.20;;;24.50;98.50;;;;;;5142426;27;20090;-94
2022/08/15 08:19:02;;;;;;;0.20;0.20;;;24.70;98.50;;;;;;5159863;27;20046;-94
2022/08/15 08:21:45;;;;;;;0.20;0.20;;;24.80;98.40;;;;;;5159917;27;20129;-92
2022/08/15 08:24:30;;;;;;;0.20;0.20;;;25.00;98.10;;;;;;5160848;27;20119;-91
2022/08/15 08:27:07;;;;;;;0.20;0.20;;;25.10;97.70;;;;;;5140546;27;20042;-93
2022/08/15 08:29:45;;;;;;;0.20;0.20;;;25.20;97.40;;;;;;5144135;27;20043;-95
2022/08/15 08:32:20;;;;;;;0.20;0.20;;;25.30;97.20;;;;;;5153688;27;20077;-96
2022/08/15 08:35:07;;;;;;;0.20;0.20;;;25.40;96.60;;;;;;5144512;27;20395;-93
2022/08/15 08:37:58;;;;;;;0.20;0.20;;;25.50;96.10;;;;;;5141231;27;20490;-94
2022/08/15 08:43:42;;;;;;;0.20;0.20;;;25.70;95.60;;;;;;5140335;27;20046;-95
2022/08/15 08:46:17;;;;;;;0.20;0.20;;;25.70;95.60;;;;;;5141102;27;20042;-91
2022/08/15 08:48:53;;;;;;;0.20;0.20;;;25.80;95.60;;;;;;5160641;27;20048;-95
2022/08/15 08:52:02;;;;;;;0.30;0.30;;;25.80;95.20;;;;;;5163598;27;20062;-95
2022/08/15 08:54:50;;;;;;;0.20;0.20;;;25.90;95.10;;;;;;5172922;27;20038;-96
2022/08/15 08:57:20;;;;;;;0.20;0.20;;;26.00;94.80;;;;;;5164250;27;20042;-95
2022/08/15 08:59:46;;;;;;;0.20;0.20;;;26.10;94.70;;;;;;5141836;27;20064;-95
2022/08/15 09:02:34;;;;;;;0.20;0.20;;;26.10;94.20;;;;;;5163422;27;20048;-93
2022/08/15 09:05:12;;;;;;;0.20;0.20;;;26.20;94.20;;;;;;5156721;27;20043;-96
2022/08/15 09:07:46;;;;;;;0.20;0.20;;;26.20;94.10;;;;;;5142684;27;20047;-93
2022/08/15 09:10:23;;;;;;;0.20;0.20;;;26.30;93.90;;;;;;5141045;27;20051;-96
2022/08/15 09:15:40;;;;;;;0.20;0.20;;;26.40;93.80;;;;;;5140913;27;20051;-94
2022/08/15 09:18:14;;;;;;;0.20;0.20;;;26.40;93.30;;;;;;5139621;27;20047;-94
2022/08/15 09:20:41;;;;;;;0.20;0.20;;;26.50;93.00;;;;;;5143254;27;20043;-96
2022/08/15 09:23:10;;;;;;;0.20;0.20;;;26.50;93.10;;;;;;5147355;27;20040;-96
2022/08/15 09:26:15;;;;;;;0.20;0.20;;;26.60;93.20;;;;;;5127290;27;20044;-95
2022/08/15 09:28:44;;;;;;;0.20;0.20;;;26.70;93.10;;;;;;5136312;27;20506;-96
2022/08/15 09:31:18;;;;;;;0.20;0.20;;;26.80;93.10;;;;;;5148644;27;20056;-96
2022/08/15 09:33:46;;;;;;;0.20;0.20;;;26.90;93.00;;;;;;5131205;27;20030;-96
2022/08/15 09:36:22;;;;;;;0.20;0.20;;;27.00;92.80;;;;;;5134394;27;20129;-94
2022/08/15 09:39:02;;;;;;;0.20;0.20;;;27.10;92.50;;;;;;5123186;27;20103;-95
2022/08/15 09:41:43;;;;;;;0.20;0.20;;;27.10;92.20;;;;;;5124158;27;20322;-96
2022/08/15 09:44:19;;;;;;;0.20;0.20;;;27.20;92.10;;;;;;5125332;27;20492;-94
2022/08/15 09:47:13;;;;;;;0.20;0.20;;;27.30;92.10;;;;;;5142354;27;20058;-95
2022/08/15 09:50:36;;;;;;;0.20;0.20;;;27.40;91.70;;;;;;5121110;27;20043;-95
2022/08/15 09:53:23;;;;;;;0.20;0.20;;;27.40;91.00;;;;;;5022921;28;20045;-94
2022/08/15 09:55:51;;;;;;;0.20;0.20;;;27.50;90.60;;;;;;5030024;28;20049;-94
2022/08/15 09:58:21;;;;;;;0.25;0.25;;;27.50;90.40;;;;;;5082523;27;20108;-95
2022/08/15 10:01:19;;;;;;;0.20;0.20;;;27.60;90.10;;;;;;5121334;27;20505;-94
2022/08/15 10:03:44;;;;;;;0.20;0.20;;;27.70;89.70;;;;;;5112828;27;20055;-95
2022/08/15 10:06:20;;;;;;;0.30;0.30;;;27.70;89.20;;;;;;5138383;27;20525;-94
2022/08/15 10:09:15;;;;;;;0.20;0.20;;;27.80;89.40;;;;;;5137768;27;20140;-95
2022/08/15 10:11:41;;;;;;;0.20;0.20;;;27.80;88.10;;;;;;5119723;27;20058;-96
2022/08/15 10:14:40;;;;;;;0.20;0.20;;;27.90;88.00;;;;;;5138413;27;20035;-95
2022/08/15 10:17:37;;;;;;;0.20;0.20;;;27.90;87.70;;;;;;5128494;27;20027;-95
2022/08/15 10:20:15;;;;;;;0.20;0.20;;;28.00;87.70;;;;;;5124585;27;20045;-96
2022/08/15 10:22:48;;;;;;;0.20;0.20;;;28.00;87.20;;;;;;5127123;27;20491;-95
2022/08/15 10:25:22;;;;;;;0.20;0.20;;;28.10;86.40;;;;;;5133566;27;20023;-96
2022/08/15 10:28:20;;;;;;;0.20;0.20;;;28.10;84.80;;;;;;5141548;27;20047;-92
2022/08/15 10:31:06;;;;;;;0.20;0.20;;;28.10;83.40;;;;;;5122271;27;20063;-91
2022/08/15 10:33:32;;;;;;;0.20;0.20;;;28.10;85.00;;;;;;5125430;27;20076;-95
2022/08/15 10:36:13;;;;;;;0.20;0.20;;;28.20;83.70;;;;;;5138355;27;20070;-91
2022/08/15 10:39:03;;;;;;;0.20;0.20;;;28.20;84.60;;;;;;5162023;27;20058;-94
2022/08/15 10:41:51;;;;;;;0.20;0.20;;;28.20;83.60;;;;;;5167537;27;20053;-95
2022/08/15 10:44:41;;;;;;;0.20;0.20;;;28.20;84.20;;;;;;5147215;27;20051;-91
2022/08/15 10:47:22;;;;;;;0.20;0.20;;;28.20;84.30;;;;;;5154240;27;20070;-94
2022/08/15 10:50:22;;;;;;;0.20;0.20;;;28.30;84.40;;;;;;5163590;27;20525;-93
2022/08/15 10:53:07;;;;;;;0.20;0.20;;;28.30;80.90;;;;;;5141942;27;20501;-93
2022/08/15 10:55:35;;;;;;;0.20;0.20;;;28.30;82.80;;;;;;5141036;27;20482;-94
2022/08/15 10:58:07;;;;;;;0.20;0.20;;;28.40;81.80;;;;;;5143929;27;20072;-94
2022/08/15 11:00:48;;;;;;;0.20;0.20;;;28.40;81.40;;;;;;5166792;27;20129;-93
2022/08/15 11:03:18;;;;;;;0.20;0.20;;;28.40;82.50;;;;;;5159480;27;20537;-96
2022/08/15 11:05:53;;;;;;;0.20;0.20;;;28.40;82.50;;;;;;5155951;27;20039;-93
2022/08/15 11:08:19;;;;;;;0.20;0.20;;;28.50;82.80;;;;;;5158053;27;20042;-94
2022/08/15 11:10:46;;;;;;;0.20;0.20;;;28.50;81.70;;;;;;5140517;27;20122;-93
2022/08/15 11:13:16;;;;;;;0.20;0.20;;;28.50;81.60;;;;;;5159214;27;20085;-93
2022/08/15 11:15:54;;;;;;;0.20;0.20;;;28.60;80.80;;;;;;5142511;27;20042;-92
2022/08/15 11:18:28;;;;;;;0.28;0.28;;;28.70;79.90;;;;;;5147158;27;20042;-93
2022/08/15 11:21:01;;;;;;;0.20;0.20;;;28.80;79.30;;;;;;5141937;27;20406;-96
2022/08/15 11:23:37;;;;;;;0.20;0.20;;;28.80;79.70;;;;;;5159065;27;20035;-95
2022/08/15 11:26:04;;;;;;;0.20;0.20;;;28.80;79.80;;;;;;5159220;27;20042;-94
2022/08/15 11:28:30;;;;;;;0.20;0.20;;;28.80;78.40;;;;;;5141010;27;20031;-94
2022/08/15 11:31:12;;;;;;;0.22;0.22;;;28.80;78.70;;;;;;5159172;27;20454;-92
2022/08/15 11:33:41;;;;;;;0.20;0.20;;;28.70;78.30;;;;;;5161166;27;20442;-95
2022/08/15 11:36:07;;;;;;;0.20;0.20;;;28.60;78.90;;;;;;5162742;27;20119;-95
2022/08/15 11:38:43;;;;;;;0.20;0.20;;;28.40;78.70;;;;;;5160133;27;20106;-93
2022/08/15 11:41:09;;;;;;;0.20;0.20;;;28.20;79.70;;;;;;5144702;27;20054;-96
2022/08/15 11:43:37;;;;;;;0.20;0.20;;;28.00;80.40;;;;;;5150477;27;20501;-95
2022/08/15 11:46:03;;;;;;;0.20;0.20;;;27.90;80.90;;;;;;5161772;27;20071;-95
2022/08/15 11:48:33;;;;;;;0.20;0.20;;;27.80;81.20;;;;;;5169354;27;20047;-96
2022/08/15 11:51:08;;;;;;;0.20;0.20;;;27.70;81.90;;;;;;5171746;27;20038;-95
2022/08/15 11:53:41;;;;;;;0.20;0.20;;;27.60;82.40;;;;;;5141555;27;20110;-94
2022/08/15 11:56:08;;;;;;;0.20;0.20;;;27.60;82.40;;;;;;5158411;27;20090;-92
2022/08/15 11:58:38;;;;;;;0.20;0.20;;;27.50;81.90;;;;;;5176882;27;20057;-93
2022/08/15 12:01:44;;;;;;;0.20;0.20;;;27.40;81.70;;;;;;5138427;27;20501;-93
2022/08/15 12:04:11;;;;;;;0.20;0.20;;;27.40;82.90;;;;;;5035653;28;20190;-95
2022/08/15 12:06:40;;;;;;;0.20;0.20;;;27.30;83.50;;;;;;5036171;28;20049;-94
2022/08/15 12:09:13;;;;;;;0.25;0.25;;;27.30;83.90;;;;;;5105908;27;20053;-95
2022/08/15 12:11:43;;;;;;;0.20;0.20;;;27.40;83.70;;;;;;5155131;27;20469;-95
2022/08/15 12:14:25;;;;;;;0.20;0.20;;;27.30;83.90;;;;;;5137598;27;20506;-93
2022/08/15 12:17:02;;;;;;;0.20;0.20;;;27.30;83.90;;;;;;5138143;27;20078;-94
2022/08/15 12:19:45;;;;;;;0.20;0.20;;;27.30;84.00;;;;;;5142744;27;20049;-94
2022/08/15 12:22:14;;;;;;;0.20;0.20;;;27.30;84.30;;;;;;5160189;27;20046;-95
2022/08/15 12:24:44;;;;;;;0.20;0.20;;;27.30;84.70;;;;;;5166429;27;20054;-93
2022/08/15 12:27:11;;;;;;;;;;;27.40;85.00;;;;;;5162392;27;20077;-93
2022/08/15 12:29:38;;;;;;;0.20;0.20;;;27.40;84.60;;;;;;5145390;27;19944;-95
2022/08/15 12:32:07;;;;;;;0.20;0.20;;;27.40;84.60;;;;;;5141070;27;20054;-94
2022/08/15 12:34:36;;;;;;;0.20;0.20;;;27.30;84.80;;;;;;5140552;27;20047;-94
2022/08/15 12:37:06;;;;;;;0.20;0.20;;;27.40;84.90;;;;;;5142723;27;20047;-94
2022/08/15 12:39:32;;;;;;;0.20;0.20;;;27.30;85.00;;;;;;5146287;27;20061;-94
2022/08/15 12:41:59;;;;;;;0.20;0.20;;;27.30;85.30;;;;;;5143273;27;20066;-93
2022/08/15 12:44:28;;;;;;;0.20;0.20;;;27.40;85.40;;;;;;5154299;27;20038;-92
2022/08/15 12:46:55;;;;;;;0.20;0.20;;;27.40;85.50;;;;;;5174587;27;20030;-94
2022/08/15 12:49:21;;;;;;;0.20;0.20;;;27.30;85.40;;;;;;5161501;27;20051;-94
2022/08/15 12:51:47;;;;;;;0.20;0.20;;;27.40;85.80;;;;;;5142075;27;20097;-94
2022/08/15 12:54:14;;;;;;;0.20;0.20;;;27.40;86.00;;;;;;5160187;27;20043;-93
2022/08/15 12:56:41;;;;;;;0.20;0.20;;;27.40;86.10;;;;;;5171817;27;20070;-94
2022/08/15 12:59:06;;;;;;;0.20;0.20;;;27.50;85.00;;;;;;5147848;27;20513;-94
2022/08/15 13:01:33;;;;;;;0.20;0.20;;;27.50;84.00;;;;;;5140392;27;20069;-94
2022/08/15 13:04:04;;;;;;;0.20;0.20;;;27.50;83.40;;;;;;5141851;27;20046;-93
2022/08/15 13:06:48;;;;;;;0.20;0.20;;;27.50;83.40;;;;;;5159935;27;20038;-96
2022/08/15 13:09:16;;;;;;;0.20;0.20;;;27.60;83.90;;;;;;5166783;27;20042;-93
2022/08/15 13:11:43;;;;;;;0.20;0.20;;;27.60;83.60;;;;;;5160343;27;20042;-96
2022/08/15 13:14:19;;;;;;;0.20;0.20;;;27.60;84.10;;;;;;5142636;27;20064;-96
2022/08/15 13:16:46;;;;;;;0.20;0.20;;;27.50;83.90;;;;;;5141127;27;20064;-94
2022/08/15 13:19:22;;;;;;;0.20;0.20;;;27.50;84.10;;;;;;5160210;27;20125;-94
2022/08/15 13:24:34;;;;;;;0.20;0.20;;;27.40;85.10;;;;;;5143021;27;20043;-91
2022/08/15 13:27:01;;;;;;;0.20;0.20;;;27.40;84.40;;;;;;5179320;27;20026;-93
2022/08/15 13:29:29;;;;;;;0.20;0.20;;;27.30;84.90;;;;;;5151954;27;20049;-94
2022/08/15 13:31:55;;;;;;;0.20;0.20;;;27.20;85.70;;;;;;5140125;27;20043;-92